Terminal Aerodrome Forecast
Issued by NWS Charleston, WV

Current Version | Previous Version | Text Only | Print | Product List | Glossary Off
Versions: 1 2 3 4 5 6 7 8 9 10 11 12 13 14 15 16 17 18 19 20 21 22 23 24 25

000
FTUS41 KRLX 161002 AAA
TAFPKB
TAF AMD
KPKB 161002Z 1610/1706 21007KT 5SM -RA BR SCT009 BKN029 OVC080
     FM161200 31011G18KT 4SM SHRA OVC014
     FM161400 31011KT 4SM -SHRA OVC009
     FM161900 33007KT P6SM SCT013
     FM170100 04003KT P6SM FEW250=

USA.gov is the U.S. government's official web portal to all federal, state and local government web resources and services.